sensor_id;sensor_type;location;lat;lon;timestamp;P1;durP1;ratioP1;P2;durP2;ratioP2
6517;SDS011;3292;48.944;9.240;2023-02-12T00:01:09;34.27;;;27.83;;
6517;SDS011;3292;48.944;9.240;2023-02-12T00:03:38;32.43;;;26.40;;
6517;SDS011;3292;48.944;9.240;2023-02-12T00:06:06;34.47;;;27.13;;
6517;SDS011;3292;48.944;9.240;2023-02-12T00:08:34;33.67;;;27.47;;
6517;SDS011;3292;48.944;9.240;2023-02-12T00:11:05;31.83;;;25.53;;
6517;SDS011;3292;48.944;9.240;2023-02-12T00:13:33;29.93;;;25.13;;
6517;SDS011;3292;48.944;9.240;2023-02-12T00:16:02;31.67;;;25.23;;
6517;SDS011;3292;48.944;9.240;2023-02-12T00:18:30;31.87;;;26.37;;
6517;SDS011;3292;48.944;9.240;2023-02-12T00:20:59;31.37;;;25.53;;
6517;SDS011;3292;48.944;9.240;2023-02-12T00:23:26;34.30;;;26.00;;
6517;SDS011;3292;48.944;9.240;2023-02-12T00:25:53;31.77;;;25.60;;
6517;SDS011;3292;48.944;9.240;2023-02-12T00:28:20;33.10;;;26.47;;
6517;SDS011;3292;48.944;9.240;2023-02-12T00:30:47;32.67;;;26.60;;
6517;SDS011;3292;48.944;9.240;2023-02-12T00:33:14;35.87;;;27.47;;
6517;SDS011;3292;48.944;9.240;2023-02-12T00:35:41;30.60;;;25.83;;
6517;SDS011;3292;48.944;9.240;2023-02-12T00:38:09;35.53;;;27.83;;
6517;SDS011;3292;48.944;9.240;2023-02-12T00:40:36;31.87;;;25.77;;
6517;SDS011;3292;48.944;9.240;2023-02-12T00:43:03;33.10;;;28.13;;
6517;SDS011;3292;48.944;9.240;2023-02-12T00:45:30;36.93;;;27.57;;
6517;SDS011;3292;48.944;9.240;2023-02-12T00:47:58;34.03;;;27.23;;
6517;SDS011;3292;48.944;9.240;2023-02-12T00:50:25;31.73;;;26.27;;
6517;SDS011;3292;48.944;9.240;2023-02-12T00:52:52;33.43;;;27.97;;
6517;SDS011;3292;48.944;9.240;2023-02-12T00:55:20;34.77;;;27.90;;
6517;SDS011;3292;48.944;9.240;2023-02-12T00:57:47;33.50;;;26.20;;
6517;SDS011;3292;48.944;9.240;2023-02-12T01:00:14;32.10;;;26.17;;
6517;SDS011;3292;48.944;9.240;2023-02-12T01:02:41;33.77;;;27.73;;
6517;SDS011;3292;48.944;9.240;2023-02-12T01:05:08;31.93;;;26.23;;
6517;SDS011;3292;48.944;9.240;2023-02-12T01:07:35;29.57;;;24.80;;
6517;SDS011;3292;48.944;9.240;2023-02-12T01:10:05;32.77;;;26.00;;
6517;SDS011;3292;48.944;9.240;2023-02-12T01:12:34;29.23;;;23.93;;
6517;SDS011;3292;48.944;9.240;2023-02-12T01:15:04;33.63;;;27.87;;
6517;SDS011;3292;48.944;9.240;2023-02-12T01:17:31;30.30;;;25.40;;
6517;SDS011;3292;48.944;9.240;2023-02-12T01:19:58;36.13;;;26.77;;
6517;SDS011;3292;48.944;9.240;2023-02-12T01:22:25;31.40;;;25.97;;
6517;SDS011;3292;48.944;9.240;2023-02-12T01:24:51;35.37;;;28.30;;
6517;SDS011;3292;48.944;9.240;2023-02-12T01:27:18;31.30;;;26.47;;
6517;SDS011;3292;48.944;9.240;2023-02-12T01:29:46;34.80;;;27.60;;
6517;SDS011;3292;48.944;9.240;2023-02-12T01:32:13;36.90;;;28.83;;
6517;SDS011;3292;48.944;9.240;2023-02-12T01:34:40;34.13;;;28.30;;
6517;SDS011;3292;48.944;9.240;2023-02-12T01:37:06;34.53;;;27.73;;
6517;SDS011;3292;48.944;9.240;2023-02-12T01:39:33;37.13;;;28.53;;
6517;SDS011;3292;48.944;9.240;2023-02-12T01:42:00;31.93;;;26.67;;
6517;SDS011;3292;48.944;9.240;2023-02-12T01:44:29;32.73;;;25.53;;
6517;SDS011;3292;48.944;9.240;2023-02-12T01:46:58;35.43;;;28.27;;
6517;SDS011;3292;48.944;9.240;2023-02-12T01:49:27;35.23;;;27.93;;
6517;SDS011;3292;48.944;9.240;2023-02-12T01:52:01;38.60;;;30.73;;
6517;SDS011;3292;48.944;9.240;2023-02-12T01:54:31;34.23;;;27.57;;
6517;SDS011;3292;48.944;9.240;2023-02-12T01:57:00;34.03;;;27.57;;
6517;SDS011;3292;48.944;9.240;2023-02-12T01:59:29;33.57;;;26.70;;
6517;SDS011;3292;48.944;9.240;2023-02-12T02:01:59;34.80;;;27.57;;
6517;SDS011;3292;48.944;9.240;2023-02-12T02:04:26;36.93;;;29.37;;
6517;SDS011;3292;48.944;9.240;2023-02-12T02:06:56;34.20;;;28.57;;
6517;SDS011;3292;48.944;9.240;2023-02-12T02:09:25;31.70;;;26.17;;
6517;SDS011;3292;48.944;9.240;2023-02-12T02:11:54;34.73;;;28.13;;
6517;SDS011;3292;48.944;9.240;2023-02-12T02:14:39;38.43;;;30.00;;
6517;SDS011;3292;48.944;9.240;2023-02-12T02:17:12;35.90;;;29.40;;
6517;SDS011;3292;48.944;9.240;2023-02-12T02:19:55;36.40;;;28.53;;
6517;SDS011;3292;48.944;9.240;2023-02-12T02:22:42;33.20;;;27.90;;
6517;SDS011;3292;48.944;9.240;2023-02-12T02:25:29;37.43;;;29.17;;
6517;SDS011;3292;48.944;9.240;2023-02-12T02:28:21;37.63;;;29.87;;
6517;SDS011;3292;48.944;9.240;2023-02-12T02:31:03;38.80;;;28.97;;
6517;SDS011;3292;48.944;9.240;2023-02-12T02:33:40;37.63;;;29.27;;
6517;SDS011;3292;48.944;9.240;2023-02-12T02:36:19;36.17;;;30.27;;
6517;SDS011;3292;48.944;9.240;2023-02-12T02:38:54;40.43;;;31.00;;
6517;SDS011;3292;48.944;9.240;2023-02-12T02:41:27;37.33;;;29.50;;
6517;SDS011;3292;48.944;9.240;2023-02-12T02:44:00;34.23;;;28.13;;
6517;SDS011;3292;48.944;9.240;2023-02-12T02:46:35;35.93;;;29.63;;
6517;SDS011;3292;48.944;9.240;2023-02-12T02:49:06;37.40;;;29.37;;
6517;SDS011;3292;48.944;9.240;2023-02-12T02:51:39;35.53;;;28.87;;
6517;SDS011;3292;48.944;9.240;2023-02-12T02:54:09;31.20;;;25.30;;
6517;SDS011;3292;48.944;9.240;2023-02-12T02:56:43;34.00;;;25.93;;
6517;SDS011;3292;48.944;9.240;2023-02-12T02:59:13;31.30;;;25.43;;
6517;SDS011;3292;48.944;9.240;2023-02-12T03:01:47;33.77;;;26.13;;
6517;SDS011;3292;48.944;9.240;2023-02-12T03:04:18;31.33;;;25.83;;
6517;SDS011;3292;48.944;9.240;2023-02-12T03:06:54;32.70;;;26.70;;
6517;SDS011;3292;48.944;9.240;2023-02-12T03:09:25;39.07;;;28.23;;
6517;SDS011;3292;48.944;9.240;2023-02-12T03:11:58;36.33;;;28.17;;
6517;SDS011;3292;48.944;9.240;2023-02-12T03:14:28;40.03;;;29.53;;
6517;SDS011;3292;48.944;9.240;2023-02-12T03:17:02;36.97;;;29.57;;
6517;SDS011;3292;48.944;9.240;2023-02-12T03:19:32;38.40;;;30.87;;
6517;SDS011;3292;48.944;9.240;2023-02-12T03:22:05;35.67;;;27.87;;
6517;SDS011;3292;48.944;9.240;2023-02-12T03:24:35;35.30;;;28.83;;
6517;SDS011;3292;48.944;9.240;2023-02-12T03:27:07;37.30;;;28.10;;
6517;SDS011;3292;48.944;9.240;2023-02-12T03:29:38;34.83;;;29.13;;
6517;SDS011;3292;48.944;9.240;2023-02-12T03:32:09;35.93;;;29.30;;
6517;SDS011;3292;48.944;9.240;2023-02-12T03:34:46;33.03;;;27.00;;
6517;SDS011;3292;48.944;9.240;2023-02-12T03:37:18;33.07;;;26.57;;
6517;SDS011;3292;48.944;9.240;2023-02-12T03:39:51;32.40;;;27.00;;
6517;SDS011;3292;48.944;9.240;2023-02-12T03:42:24;34.37;;;28.17;;
6517;SDS011;3292;48.944;9.240;2023-02-12T03:44:59;34.37;;;27.13;;
6517;SDS011;3292;48.944;9.240;2023-02-12T03:47:35;36.10;;;26.93;;
6517;SDS011;3292;48.944;9.240;2023-02-12T03:50:09;30.63;;;26.90;;
6517;SDS011;3292;48.944;9.240;2023-02-12T03:52:40;31.93;;;26.27;;
6517;SDS011;3292;48.944;9.240;2023-02-12T03:55:08;35.80;;;27.40;;
6517;SDS011;3292;48.944;9.240;2023-02-12T03:57:37;39.63;;;29.37;;
6517;SDS011;3292;48.944;9.240;2023-02-12T04:00:08;32.37;;;26.37;;
6517;SDS011;3292;48.944;9.240;2023-02-12T04:02:38;36.03;;;28.00;;
6517;SDS011;3292;48.944;9.240;2023-02-12T04:05:06;35.20;;;27.37;;
6517;SDS011;3292;48.944;9.240;2023-02-12T04:07:41;34.57;;;26.33;;
6517;SDS011;3292;48.944;9.240;2023-02-12T04:10:08;31.77;;;26.03;;
6517;SDS011;3292;48.944;9.240;2023-02-12T04:12:38;34.07;;;26.00;;
6517;SDS011;3292;48.944;9.240;2023-02-12T04:15:13;33.87;;;26.13;;
6517;SDS011;3292;48.944;9.240;2023-02-12T04:17:58;32.87;;;25.80;;
6517;SDS011;3292;48.944;9.240;2023-02-12T04:20:32;33.23;;;26.03;;
6517;SDS011;3292;48.944;9.240;2023-02-12T04:23:08;32.53;;;25.33;;
6517;SDS011;3292;48.944;9.240;2023-02-12T04:25:44;32.30;;;26.03;;
6517;SDS011;3292;48.944;9.240;2023-02-12T04:28:23;33.80;;;26.53;;
6517;SDS011;3292;48.944;9.240;2023-02-12T04:30:55;33.30;;;26.13;;
6517;SDS011;3292;48.944;9.240;2023-02-12T04:33:26;34.03;;;26.10;;
6517;SDS011;3292;48.944;9.240;2023-02-12T04:36:00;34.10;;;25.73;;
6517;SDS011;3292;48.944;9.240;2023-02-12T04:38:31;31.83;;;26.77;;
6517;SDS011;3292;48.944;9.240;2023-02-12T04:41:03;32.30;;;25.47;;
6517;SDS011;3292;48.944;9.240;2023-02-12T04:43:32;31.30;;;26.03;;
6517;SDS011;3292;48.944;9.240;2023-02-12T04:46:00;33.53;;;25.93;;
6517;SDS011;3292;48.944;9.240;2023-02-12T04:48:30;31.10;;;24.43;;
6517;SDS011;3292;48.944;9.240;2023-02-12T04:50:58;35.77;;;26.50;;
6517;SDS011;3292;48.944;9.240;2023-02-12T04:53:25;34.27;;;26.77;;
6517;SDS011;3292;48.944;9.240;2023-02-12T04:55:52;34.00;;;27.30;;
6517;SDS011;3292;48.944;9.240;2023-02-12T04:58:19;38.47;;;27.70;;
6517;SDS011;3292;48.944;9.240;2023-02-12T05:00:46;37.43;;;28.80;;
6517;SDS011;3292;48.944;9.240;2023-02-12T05:03:12;35.83;;;27.50;;
6517;SDS011;3292;48.944;9.240;2023-02-12T05:05:41;34.70;;;27.33;;
6517;SDS011;3292;48.944;9.240;2023-02-12T05:08:07;32.13;;;26.63;;
6517;SDS011;3292;48.944;9.240;2023-02-12T05:10:34;33.33;;;26.77;;
6517;SDS011;3292;48.944;9.240;2023-02-12T05:13:01;34.00;;;26.43;;
6517;SDS011;3292;48.944;9.240;2023-02-12T05:15:28;34.67;;;28.57;;
6517;SDS011;3292;48.944;9.240;2023-02-12T05:17:54;36.60;;;27.10;;
6517;SDS011;3292;48.944;9.240;2023-02-12T05:20:21;33.57;;;27.73;;
6517;SDS011;3292;48.944;9.240;2023-02-12T05:22:51;29.43;;;24.83;;
6517;SDS011;3292;48.944;9.240;2023-02-12T05:25:18;30.90;;;25.50;;
6517;SDS011;3292;48.944;9.240;2023-02-12T05:27:45;31.87;;;25.60;;
6517;SDS011;3292;48.944;9.240;2023-02-12T05:30:12;33.07;;;26.67;;
6517;SDS011;3292;48.944;9.240;2023-02-12T05:32:39;32.57;;;26.10;;
6517;SDS011;3292;48.944;9.240;2023-02-12T05:35:06;30.20;;;24.90;;
6517;SDS011;3292;48.944;9.240;2023-02-12T05:37:33;31.50;;;25.10;;
6517;SDS011;3292;48.944;9.240;2023-02-12T05:40:02;31.20;;;23.80;;
6517;SDS011;3292;48.944;9.240;2023-02-12T05:42:30;32.50;;;25.33;;
6517;SDS011;3292;48.944;9.240;2023-02-12T05:44:56;31.73;;;26.67;;
6517;SDS011;3292;48.944;9.240;2023-02-12T05:47:23;32.40;;;25.57;;
6517;SDS011;3292;48.944;9.240;2023-02-12T05:49:50;34.07;;;26.30;;
6517;SDS011;3292;48.944;9.240;2023-02-12T05:52:17;30.63;;;25.23;;
6517;SDS011;3292;48.944;9.240;2023-02-12T05:54:44;35.93;;;25.13;;
6517;SDS011;3292;48.944;9.240;2023-02-12T05:57:15;29.37;;;23.90;;
6517;SDS011;3292;48.944;9.240;2023-02-12T05:59:42;30.07;;;23.63;;
6517;SDS011;3292;48.944;9.240;2023-02-12T06:02:08;30.77;;;23.63;;
6517;SDS011;3292;48.944;9.240;2023-02-12T06:04:35;30.23;;;24.13;;
6517;SDS011;3292;48.944;9.240;2023-02-12T06:07:02;32.40;;;24.20;;
6517;SDS011;3292;48.944;9.240;2023-02-12T06:09:29;28.63;;;23.37;;
6517;SDS011;3292;48.944;9.240;2023-02-12T06:11:56;27.47;;;22.83;;
6517;SDS011;3292;48.944;9.240;2023-02-12T06:14:24;29.90;;;24.03;;
6517;SDS011;3292;48.944;9.240;2023-02-12T06:16:51;28.37;;;23.77;;
6517;SDS011;3292;48.944;9.240;2023-02-12T06:19:18;32.07;;;23.77;;
6517;SDS011;3292;48.944;9.240;2023-02-12T06:21:45;29.40;;;24.00;;
6517;SDS011;3292;48.944;9.240;2023-02-12T06:24:13;30.30;;;22.93;;
6517;SDS011;3292;48.944;9.240;2023-02-12T06:26:41;28.43;;;23.23;;
6517;SDS011;3292;48.944;9.240;2023-02-12T06:29:08;29.77;;;24.80;;
6517;SDS011;3292;48.944;9.240;2023-02-12T06:31:36;33.87;;;25.43;;
6517;SDS011;3292;48.944;9.240;2023-02-12T06:34:04;28.97;;;24.43;;
6517;SDS011;3292;48.944;9.240;2023-02-12T06:36:32;28.40;;;23.10;;
6517;SDS011;3292;48.944;9.240;2023-02-12T06:38:59;31.27;;;24.00;;
6517;SDS011;3292;48.944;9.240;2023-02-12T06:41:26;32.93;;;25.13;;
6517;SDS011;3292;48.944;9.240;2023-02-12T06:43:53;35.20;;;26.00;;
6517;SDS011;3292;48.944;9.240;2023-02-12T06:46:20;36.30;;;25.73;;
6517;SDS011;3292;48.944;9.240;2023-02-12T06:48:51;30.07;;;24.17;;
6517;SDS011;3292;48.944;9.240;2023-02-12T06:51:18;32.37;;;24.67;;
6517;SDS011;3292;48.944;9.240;2023-02-12T06:53:45;33.00;;;24.53;;
6517;SDS011;3292;48.944;9.240;2023-02-12T06:56:13;31.97;;;26.30;;
6517;SDS011;3292;48.944;9.240;2023-02-12T06:58:40;28.97;;;24.30;;
6517;SDS011;3292;48.944;9.240;2023-02-12T07:01:09;34.67;;;25.33;;
6517;SDS011;3292;48.944;9.240;2023-02-12T07:03:37;32.87;;;25.37;;
6517;SDS011;3292;48.944;9.240;2023-02-12T07:06:07;31.73;;;26.07;;
6517;SDS011;3292;48.944;9.240;2023-02-12T07:08:34;30.67;;;25.30;;
6517;SDS011;3292;48.944;9.240;2023-02-12T07:11:01;35.93;;;26.57;;
6517;SDS011;3292;48.944;9.240;2023-02-12T07:13:28;32.20;;;26.53;;
6517;SDS011;3292;48.944;9.240;2023-02-12T07:15:55;31.73;;;24.63;;
6517;SDS011;3292;48.944;9.240;2023-02-12T07:18:22;29.90;;;23.93;;
6517;SDS011;3292;48.944;9.240;2023-02-12T07:20:48;34.23;;;26.27;;
6517;SDS011;3292;48.944;9.240;2023-02-12T07:23:17;39.80;;;28.17;;
6517;SDS011;3292;48.944;9.240;2023-02-12T07:25:43;36.83;;;29.10;;
6517;SDS011;3292;48.944;9.240;2023-02-12T07:28:20;34.50;;;26.97;;
6517;SDS011;3292;48.944;9.240;2023-02-12T07:30:47;37.03;;;28.23;;
6517;SDS011;3292;48.944;9.240;2023-02-12T07:33:13;37.47;;;28.83;;
6517;SDS011;3292;48.944;9.240;2023-02-12T07:35:40;37.17;;;28.40;;
6517;SDS011;3292;48.944;9.240;2023-02-12T07:38:07;36.83;;;29.27;;
6517;SDS011;3292;48.944;9.240;2023-02-12T07:40:35;39.20;;;28.73;;
6517;SDS011;3292;48.944;9.240;2023-02-12T07:43:02;42.27;;;31.20;;
6517;SDS011;3292;48.944;9.240;2023-02-12T07:45:29;39.20;;;30.13;;
6517;SDS011;3292;48.944;9.240;2023-02-12T07:47:56;39.67;;;30.13;;
6517;SDS011;3292;48.944;9.240;2023-02-12T07:50:23;42.30;;;31.27;;
6517;SDS011;3292;48.944;9.240;2023-02-12T07:52:49;42.60;;;31.27;;
6517;SDS011;3292;48.944;9.240;2023-02-12T07:55:16;38.50;;;30.43;;
6517;SDS011;3292;48.944;9.240;2023-02-12T07:57:45;37.97;;;30.50;;
6517;SDS011;3292;48.944;9.240;2023-02-12T08:00:12;36.90;;;29.60;;
6517;SDS011;3292;48.944;9.240;2023-02-12T08:02:40;40.73;;;31.43;;
6517;SDS011;3292;48.944;9.240;2023-02-12T08:05:07;37.67;;;29.97;;
6517;SDS011;3292;48.944;9.240;2023-02-12T08:07:33;40.67;;;29.70;;
6517;SDS011;3292;48.944;9.240;2023-02-12T08:10:00;37.20;;;29.47;;
6517;SDS011;3292;48.944;9.240;2023-02-12T08:12:27;36.40;;;30.10;;
6517;SDS011;3292;48.944;9.240;2023-02-12T08:14:55;40.53;;;29.37;;
6517;SDS011;3292;48.944;9.240;2023-02-12T08:17:22;35.27;;;26.90;;
6517;SDS011;3292;48.944;9.240;2023-02-12T08:19:49;31.37;;;26.17;;
6517;SDS011;3292;48.944;9.240;2023-02-12T08:22:15;34.33;;;27.37;;
6517;SDS011;3292;48.944;9.240;2023-02-12T08:24:43;34.20;;;27.17;;
6517;SDS011;3292;48.944;9.240;2023-02-12T08:27:09;33.17;;;26.60;;
6517;SDS011;3292;48.944;9.240;2023-02-12T08:29:36;35.27;;;27.03;;
6517;SDS011;3292;48.944;9.240;2023-02-12T08:32:04;38.17;;;29.27;;
6517;SDS011;3292;48.944;9.240;2023-02-12T08:34:34;36.47;;;27.90;;
6517;SDS011;3292;48.944;9.240;2023-02-12T08:37:02;33.90;;;27.17;;
6517;SDS011;3292;48.944;9.240;2023-02-12T08:39:30;34.60;;;27.60;;
6517;SDS011;3292;48.944;9.240;2023-02-12T08:41:58;33.03;;;28.10;;
6517;SDS011;3292;48.944;9.240;2023-02-12T08:44:25;37.00;;;26.97;;
6517;SDS011;3292;48.944;9.240;2023-02-12T08:46:52;36.87;;;27.10;;
6517;SDS011;3292;48.944;9.240;2023-02-12T08:49:22;36.57;;;27.13;;
6517;SDS011;3292;48.944;9.240;2023-02-12T08:51:50;36.07;;;27.70;;
6517;SDS011;3292;48.944;9.240;2023-02-12T08:54:19;36.27;;;27.13;;
6517;SDS011;3292;48.944;9.240;2023-02-12T08:56:47;38.60;;;28.77;;
6517;SDS011;3292;48.944;9.240;2023-02-12T08:59:15;37.73;;;28.27;;
6517;SDS011;3292;48.944;9.240;2023-02-12T09:01:42;36.03;;;26.53;;
6517;SDS011;3292;48.944;9.240;2023-02-12T09:04:11;36.63;;;26.07;;
6517;SDS011;3292;48.944;9.240;2023-02-12T09:06:43;39.87;;;27.03;;
6517;SDS011;3292;48.944;9.240;2023-02-12T09:09:11;40.03;;;26.50;;
6517;SDS011;3292;48.944;9.240;2023-02-12T09:11:38;35.87;;;26.97;;
6517;SDS011;3292;48.944;9.240;2023-02-12T09:14:06;37.03;;;25.97;;
6517;SDS011;3292;48.944;9.240;2023-02-12T09:16:35;39.63;;;27.37;;
6517;SDS011;3292;48.944;9.240;2023-02-12T09:19:04;38.03;;;26.43;;
6517;SDS011;3292;48.944;9.240;2023-02-12T09:21:31;35.93;;;25.37;;
6517;SDS011;3292;48.944;9.240;2023-02-12T09:23:59;35.80;;;26.53;;
6517;SDS011;3292;48.944;9.240;2023-02-12T09:26:26;35.47;;;26.80;;
6517;SDS011;3292;48.944;9.240;2023-02-12T09:28:53;34.23;;;27.20;;
6517;SDS011;3292;48.944;9.240;2023-02-12T09:31:21;36.23;;;26.77;;
6517;SDS011;3292;48.944;9.240;2023-02-12T09:33:50;34.80;;;26.57;;
6517;SDS011;3292;48.944;9.240;2023-02-12T09:36:18;34.83;;;25.87;;
6517;SDS011;3292;48.944;9.240;2023-02-12T09:38:45;34.47;;;25.10;;
6517;SDS011;3292;48.944;9.240;2023-02-12T09:41:27;36.40;;;26.47;;
6517;SDS011;3292;48.944;9.240;2023-02-12T09:44:16;33.07;;;24.67;;
6517;SDS011;3292;48.944;9.240;2023-02-12T09:46:48;35.57;;;25.60;;
6517;SDS011;3292;48.944;9.240;2023-02-12T09:49:22;35.13;;;24.87;;
6517;SDS011;3292;48.944;9.240;2023-02-12T09:51:55;35.33;;;25.57;;
6517;SDS011;3292;48.944;9.240;2023-02-12T09:54:24;34.17;;;25.90;;
6517;SDS011;3292;48.944;9.240;2023-02-12T09:57:00;35.70;;;25.37;;
6517;SDS011;3292;48.944;9.240;2023-02-12T09:59:32;37.60;;;26.20;;
6517;SDS011;3292;48.944;9.240;2023-02-12T10:02:05;35.17;;;26.17;;
6517;SDS011;3292;48.944;9.240;2023-02-12T10:04:37;32.33;;;25.17;;
6517;SDS011;3292;48.944;9.240;2023-02-12T10:07:06;33.27;;;25.10;;
6517;SDS011;3292;48.944;9.240;2023-02-12T10:09:50;35.23;;;25.77;;
6517;SDS011;3292;48.944;9.240;2023-02-12T10:12:29;34.53;;;24.70;;
6517;SDS011;3292;48.944;9.240;2023-02-12T10:15:10;33.50;;;24.77;;
6517;SDS011;3292;48.944;9.240;2023-02-12T10:17:42;32.50;;;24.17;;
6517;SDS011;3292;48.944;9.240;2023-02-12T10:20:30;31.47;;;23.80;;
6517;SDS011;3292;48.944;9.240;2023-02-12T10:23:07;28.03;;;22.67;;
6517;SDS011;3292;48.944;9.240;2023-02-12T10:25:48;32.33;;;23.70;;
6517;SDS011;3292;48.944;9.240;2023-02-12T10:28:20;23.70;;;19.40;;
6517;SDS011;3292;48.944;9.240;2023-02-12T10:30:52;24.97;;;17.57;;
6517;SDS011;3292;48.944;9.240;2023-02-12T10:33:23;25.10;;;17.87;;
6517;SDS011;3292;48.944;9.240;2023-02-12T10:35:53;20.40;;;14.17;;
6517;SDS011;3292;48.944;9.240;2023-02-12T10:38:25;14.90;;;12.13;;
6517;SDS011;3292;48.944;9.240;2023-02-12T10:40:55;17.30;;;14.37;;
6517;SDS011;3292;48.944;9.240;2023-02-12T10:43:27;15.97;;;11.20;;
6517;SDS011;3292;48.944;9.240;2023-02-12T10:45:54;14.37;;;10.43;;
6517;SDS011;3292;48.944;9.240;2023-02-12T10:48:21;13.73;;;11.20;;
6517;SDS011;3292;48.944;9.240;2023-02-12T10:50:54;12.60;;;8.90;;
6517;SDS011;3292;48.944;9.240;2023-02-12T10:53:29;14.93;;;11.20;;
6517;SDS011;3292;48.944;9.240;2023-02-12T10:56:04;17.30;;;12.50;;
6517;SDS011;3292;48.944;9.240;2023-02-12T10:58:39;15.00;;;12.17;;
6517;SDS011;3292;48.944;9.240;2023-02-12T11:01:13;13.90;;;10.33;;
6517;SDS011;3292;48.944;9.240;2023-02-12T11:03:42;12.67;;;10.00;;
6517;SDS011;3292;48.944;9.240;2023-02-12T11:06:10;13.73;;;10.50;;
6517;SDS011;3292;48.944;9.240;2023-02-12T11:08:40;11.73;;;9.53;;
6517;SDS011;3292;48.944;9.240;2023-02-12T11:11:08;11.13;;;8.57;;
6517;SDS011;3292;48.944;9.240;2023-02-12T11:13:39;7.70;;;6.30;;
6517;SDS011;3292;48.944;9.240;2023-02-12T11:16:09;8.83;;;7.50;;
6517;SDS011;3292;48.944;9.240;2023-02-12T11:18:37;7.87;;;6.37;;
6517;SDS011;3292;48.944;9.240;2023-02-12T11:21:05;8.20;;;6.90;;
6517;SDS011;3292;48.944;9.240;2023-02-12T11:23:34;7.70;;;6.50;;
6517;SDS011;3292;48.944;9.240;2023-02-12T11:26:03;7.23;;;6.07;;
6517;SDS011;3292;48.944;9.240;2023-02-12T11:28:32;7.83;;;5.70;;
6517;SDS011;3292;48.944;9.240;2023-02-12T11:31:03;7.50;;;5.83;;
6517;SDS011;3292;48.944;9.240;2023-02-12T11:33:45;6.70;;;5.80;;
6517;SDS011;3292;48.944;9.240;2023-02-12T11:36:14;6.73;;;5.77;;
6517;SDS011;3292;48.944;9.240;2023-02-12T11:38:48;10.63;;;7.00;;
6517;SDS011;3292;48.944;9.240;2023-02-12T11:41:21;8.53;;;6.83;;
6517;SDS011;3292;48.944;9.240;2023-02-12T11:43:49;8.47;;;7.10;;
6517;SDS011;3292;48.944;9.240;2023-02-12T11:46:19;8.67;;;7.40;;
6517;SDS011;3292;48.944;9.240;2023-02-12T11:48:49;8.50;;;6.90;;
6517;SDS011;3292;48.944;9.240;2023-02-12T11:51:17;8.40;;;6.30;;
6517;SDS011;3292;48.944;9.240;2023-02-12T11:53:47;6.57;;;5.60;;
6517;SDS011;3292;48.944;9.240;2023-02-12T11:56:16;7.97;;;6.03;;
6517;SDS011;3292;48.944;9.240;2023-02-12T11:58:44;7.67;;;6.27;;
6517;SDS011;3292;48.944;9.240;2023-02-12T12:01:13;6.30;;;5.13;;
6517;SDS011;3292;48.944;9.240;2023-02-12T12:03:47;7.50;;;6.00;;
6517;SDS011;3292;48.944;9.240;2023-02-12T12:06:32;6.37;;;5.13;;
6517;SDS011;3292;48.944;9.240;2023-02-12T12:09:04;7.10;;;5.70;;
6517;SDS011;3292;48.944;9.240;2023-02-12T12:11:39;6.93;;;5.77;;
6517;SDS011;3292;48.944;9.240;2023-02-12T12:14:14;7.07;;;5.60;;
6517;SDS011;3292;48.944;9.240;2023-02-12T12:16:48;7.13;;;6.00;;
6517;SDS011;3292;48.944;9.240;2023-02-12T12:19:39;7.47;;;6.20;;
6517;SDS011;3292;48.944;9.240;2023-02-12T12:22:35;9.00;;;6.00;;
6517;SDS011;3292;48.944;9.240;2023-02-12T12:25:12;8.33;;;6.80;;
6517;SDS011;3292;48.944;9.240;2023-02-12T12:27:53;6.90;;;5.97;;
6517;SDS011;3292;48.944;9.240;2023-02-12T12:30:36;7.87;;;6.67;;
6517;SDS011;3292;48.944;9.240;2023-02-12T12:33:18;7.73;;;6.27;;
6517;SDS011;3292;48.944;9.240;2023-02-12T12:35:59;9.23;;;6.37;;
6517;SDS011;3292;48.944;9.240;2023-02-12T12:38:40;5.63;;;5.03;;
6517;SDS011;3292;48.944;9.240;2023-02-12T12:41:20;6.43;;;5.07;;
6517;SDS011;3292;48.944;9.240;2023-02-12T12:43:55;6.97;;;4.60;;
6517;SDS011;3292;48.944;9.240;2023-02-12T12:46:33;7.23;;;5.77;;
6517;SDS011;3292;48.944;9.240;2023-02-12T12:49:23;7.60;;;5.63;;
6517;SDS011;3292;48.944;9.240;2023-02-12T12:52:11;7.60;;;5.60;;
6517;SDS011;3292;48.944;9.240;2023-02-12T12:55:05;6.80;;;5.77;;
6517;SDS011;3292;48.944;9.240;2023-02-12T12:57:45;6.07;;;5.40;;
6517;SDS011;3292;48.944;9.240;2023-02-12T13:00:35;6.20;;;5.00;;
6517;SDS011;3292;48.944;9.240;2023-02-12T13:06:23;3.80;;;3.37;;
6517;SDS011;3292;48.944;9.240;2023-02-12T13:09:28;4.70;;;4.20;;
6517;SDS011;3292;48.944;9.240;2023-02-12T13:12:12;4.60;;;4.10;;
6517;SDS011;3292;48.944;9.240;2023-02-12T13:15:08;4.70;;;3.97;;
6517;SDS011;3292;48.944;9.240;2023-02-12T13:17:49;4.47;;;4.07;;
6517;SDS011;3292;48.944;9.240;2023-02-12T13:20:26;5.37;;;3.83;;
6517;SDS011;3292;48.944;9.240;2023-02-12T13:23:08;4.73;;;3.77;;
6517;SDS011;3292;48.944;9.240;2023-02-12T13:25:51;5.50;;;4.30;;
6517;SDS011;3292;48.944;9.240;2023-02-12T13:28:28;5.57;;;4.40;;
6517;SDS011;3292;48.944;9.240;2023-02-12T13:31:01;5.97;;;5.17;;
6517;SDS011;3292;48.944;9.240;2023-02-12T13:33:35;5.73;;;4.97;;
6517;SDS011;3292;48.944;9.240;2023-02-12T13:36:09;5.83;;;4.93;;
6517;SDS011;3292;48.944;9.240;2023-02-12T13:38:45;5.67;;;5.07;;
6517;SDS011;3292;48.944;9.240;2023-02-12T13:41:19;5.87;;;4.97;;
6517;SDS011;3292;48.944;9.240;2023-02-12T13:43:58;6.30;;;5.57;;
6517;SDS011;3292;48.944;9.240;2023-02-12T13:46:33;8.63;;;6.60;;
6517;SDS011;3292;48.944;9.240;2023-02-12T13:49:15;7.67;;;6.03;;
6517;SDS011;3292;48.944;9.240;2023-02-12T13:51:49;7.87;;;6.70;;
6517;SDS011;3292;48.944;9.240;2023-02-12T13:57:16;9.00;;;7.10;;
6517;SDS011;3292;48.944;9.240;2023-02-12T14:00:00;7.27;;;5.93;;
6517;SDS011;3292;48.944;9.240;2023-02-12T14:02:42;8.93;;;6.93;;
6517;SDS011;3292;48.944;9.240;2023-02-12T14:05:15;8.47;;;7.00;;
6517;SDS011;3292;48.944;9.240;2023-02-12T14:07:50;8.63;;;6.43;;
6517;SDS011;3292;48.944;9.240;2023-02-12T14:10:29;7.33;;;6.30;;
6517;SDS011;3292;48.944;9.240;2023-02-12T14:13:23;8.40;;;6.40;;
6517;SDS011;3292;48.944;9.240;2023-02-12T14:18:47;8.20;;;6.47;;
6517;SDS011;3292;48.944;9.240;2023-02-12T14:32:55;8.17;;;5.90;;
6517;SDS011;3292;48.944;9.240;2023-02-12T14:35:30;6.23;;;5.07;;
6517;SDS011;3292;48.944;9.240;2023-02-12T14:37:59;6.80;;;5.60;;
6517;SDS011;3292;48.944;9.240;2023-02-12T14:40:35;6.27;;;5.47;;
6517;SDS011;3292;48.944;9.240;2023-02-12T14:43:25;6.47;;;5.77;;
6517;SDS011;3292;48.944;9.240;2023-02-12T14:45:58;5.77;;;5.10;;
6517;SDS011;3292;48.944;9.240;2023-02-12T14:48:44;7.93;;;6.23;;
6517;SDS011;3292;48.944;9.240;2023-02-12T14:51:21;6.33;;;5.50;;
6517;SDS011;3292;48.944;9.240;2023-02-12T14:53:57;7.13;;;5.77;;
6517;SDS011;3292;48.944;9.240;2023-02-12T14:56:44;7.20;;;5.87;;
6517;SDS011;3292;48.944;9.240;2023-02-12T14:59:20;7.77;;;5.50;;
6517;SDS011;3292;48.944;9.240;2023-02-12T15:01:56;7.20;;;5.93;;
6517;SDS011;3292;48.944;9.240;2023-02-12T15:04:38;6.57;;;5.80;;
6517;SDS011;3292;48.944;9.240;2023-02-12T15:07:21;6.67;;;5.87;;
6517;SDS011;3292;48.944;9.240;2023-02-12T15:09:58;7.03;;;5.80;;
6517;SDS011;3292;48.944;9.240;2023-02-12T15:12:38;6.60;;;5.60;;
6517;SDS011;3292;48.944;9.240;2023-02-12T15:15:11;9.03;;;6.10;;
6517;SDS011;3292;48.944;9.240;2023-02-12T15:17:55;7.00;;;6.30;;
6517;SDS011;3292;48.944;9.240;2023-02-12T15:20:32;8.57;;;6.07;;
6517;SDS011;3292;48.944;9.240;2023-02-12T15:26:01;7.33;;;6.43;;
6517;SDS011;3292;48.944;9.240;2023-02-12T15:28:30;6.57;;;5.87;;
6517;SDS011;3292;48.944;9.240;2023-02-12T15:31:21;7.43;;;5.47;;
6517;SDS011;3292;48.944;9.240;2023-02-12T15:34:04;6.37;;;4.77;;
6517;SDS011;3292;48.944;9.240;2023-02-12T15:36:36;5.03;;;4.27;;
6517;SDS011;3292;48.944;9.240;2023-02-12T15:39:19;6.00;;;5.17;;
6517;SDS011;3292;48.944;9.240;2023-02-12T15:41:49;5.70;;;4.80;;
6517;SDS011;3292;48.944;9.240;2023-02-12T15:44:27;6.67;;;5.40;;
6517;SDS011;3292;48.944;9.240;2023-02-12T15:47:02;6.07;;;4.97;;